createdAt,value
2019-03-19T00:00:05.761Z,2.89
2019-03-19T00:01:05.737Z,2.95
2019-03-19T00:02:05.704Z,2.96
2019-03-19T00:03:05.721Z,3.08
2019-03-19T00:04:05.655Z,3.08
2019-03-19T00:05:05.627Z,3.20
2019-03-19T00:06:05.609Z,3.23
2019-03-19T00:07:05.582Z,3.21
2019-03-19T00:08:05.555Z,3.28
2019-03-19T00:09:05.529Z,3.29
2019-03-19T00:10:05.502Z,3.32
2019-03-19T00:11:05.489Z,3.32
2019-03-19T00:12:05.454Z,3.43
2019-03-19T00:13:05.426Z,3.42
2019-03-19T00:14:05.403Z,3.39
2019-03-19T00:15:05.383Z,3.43
2019-03-19T00:16:05.351Z,3.45
2019-03-19T00:17:05.327Z,3.47
2019-03-19T00:18:05.301Z,3.35
2019-03-19T00:19:05.278Z,3.36
2019-03-19T00:20:05.250Z,3.35
2019-03-19T00:21:05.232Z,3.33
2019-03-19T00:22:05.198Z,3.26
2019-03-19T00:23:05.175Z,3.21
2019-03-19T00:24:05.151Z,3.24
2019-03-19T00:25:05.126Z,3.21
2019-03-19T00:26:05.099Z,3.02
2019-03-19T00:27:05.090Z,3.11
2019-03-19T00:28:05.053Z,3.03
2019-03-19T00:29:05.024Z,3.02
2019-03-19T00:30:05.007Z,3.03
2019-03-19T00:31:05.035Z,2.97
2019-03-19T00:32:04.951Z,2.95
2019-03-19T00:33:04.940Z,2.99
2019-03-19T00:34:04.899Z,2.97
2019-03-19T00:35:04.874Z,2.97
2019-03-19T00:36:04.848Z,3.05
2019-03-19T00:37:04.825Z,2.99
2019-03-19T00:38:04.799Z,2.95
2019-03-19T00:39:04.776Z,2.81
2019-03-19T00:40:04.751Z,2.69
2019-03-19T00:41:04.726Z,2.59
2019-03-19T00:42:04.697Z,2.43
2019-03-19T00:43:04.678Z,2.38
2019-03-19T00:44:04.650Z,2.43
2019-03-19T00:45:04.623Z,2.43
2019-03-19T00:46:04.593Z,2.49
2019-03-19T00:47:04.569Z,2.48
2019-03-19T00:48:04.544Z,2.43
2019-03-19T00:49:06.737Z,2.63
2019-03-19T00:50:04.494Z,2.67
2019-03-19T00:51:04.468Z,2.71
2019-03-19T00:52:04.452Z,2.72
2019-03-19T00:53:04.423Z,2.64
2019-03-19T00:54:04.396Z,2.81
2019-03-19T00:55:04.370Z,2.74
2019-03-19T00:56:04.342Z,2.81
2019-03-19T00:57:04.316Z,2.87
2019-03-19T00:58:04.324Z,2.92
2019-03-19T00:59:04.267Z,2.96
2019-03-19T01:00:04.243Z,3.03
2019-03-19T01:01:04.217Z,2.99
2019-03-19T01:02:04.195Z,3.00
2019-03-19T01:03:04.162Z,3.05
2019-03-19T01:04:04.138Z,3.06
2019-03-19T01:05:04.112Z,3.14
2019-03-19T01:06:04.088Z,3.17
2019-03-19T01:07:04.064Z,3.15
2019-03-19T01:08:04.047Z,3.17
2019-03-19T01:09:04.015Z,3.23
2019-03-19T01:10:03.988Z,3.29
2019-03-19T01:11:03.967Z,3.21
2019-03-19T01:12:03.938Z,3.17
2019-03-19T01:13:03.909Z,3.28
2019-03-19T01:14:03.888Z,3.24
2019-03-19T01:15:03.861Z,3.24
2019-03-19T01:16:03.835Z,3.11
2019-03-19T01:17:03.817Z,2.97
2019-03-19T01:18:03.785Z,2.89
2019-03-19T01:19:03.760Z,2.69
2019-03-19T01:20:03.737Z,2.71
2019-03-19T01:21:03.710Z,2.54
2019-03-19T01:22:03.688Z,2.59
2019-03-19T01:23:03.660Z,2.63
2019-03-19T01:24:03.634Z,2.67
2019-03-19T01:25:03.609Z,2.72
2019-03-19T01:26:03.588Z,2.75
2019-03-19T01:27:03.557Z,2.77
2019-03-19T01:28:03.544Z,2.72
2019-03-19T01:29:03.507Z,2.72
2019-03-19T01:30:03.482Z,2.66
2019-03-19T01:31:03.465Z,2.42
2019-03-19T01:32:03.435Z,2.43
2019-03-19T01:33:03.404Z,2.43
2019-03-19T01:34:03.380Z,2.43
2019-03-19T01:35:03.356Z,2.27
2019-03-19T01:36:03.333Z,2.24
2019-03-19T01:37:03.311Z,2.21
2019-03-19T01:38:03.279Z,2.16
2019-03-19T01:39:03.252Z,2.14
2019-03-19T01:40:03.232Z,2.20
2019-03-19T01:41:03.201Z,2.21
2019-03-19T01:42:03.181Z,2.27
2019-03-19T01:43:03.150Z,2.27
2019-03-19T01:44:03.128Z,2.24
2019-03-19T01:45:03.106Z,2.34
2019-03-19T01:46:03.075Z,2.30
2019-03-19T01:47:03.053Z,2.31
2019-03-19T01:48:03.024Z,2.35
2019-03-19T01:49:03.022Z,2.36
2019-03-19T01:50:02.972Z,2.35
2019-03-19T01:51:02.952Z,2.34
2019-03-19T01:52:02.930Z,2.34
2019-03-19T01:53:02.896Z,2.30
2019-03-19T01:54:02.873Z,2.35
2019-03-19T01:55:02.845Z,2.27
2019-03-19T01:56:05.393Z,2.21
2019-03-19T01:57:02.795Z,2.27
2019-03-19T01:58:02.769Z,2.23
2019-03-19T01:59:02.745Z,2.17
2019-03-19T02:00:02.721Z,2.02
2019-03-19T02:01:02.694Z,1.87
2019-03-19T02:02:02.675Z,1.99
2019-03-19T02:03:02.646Z,1.99
2019-03-19T02:04:02.619Z,1.86
2019-03-19T02:05:02.594Z,1.90
2019-03-19T02:06:02.572Z,2.02
2019-03-19T02:07:02.544Z,1.88
2019-03-19T02:08:02.527Z,1.98
2019-03-19T02:09:02.495Z,1.86
2019-03-19T02:10:02.464Z,2.03
2019-03-19T02:11:02.440Z,1.95
2019-03-19T02:12:02.414Z,1.95
2019-03-19T02:13:02.389Z,2.00
2019-03-19T02:14:02.364Z,2.09
2019-03-19T02:15:02.339Z,2.10
2019-03-19T02:16:02.318Z,2.16
2019-03-19T02:17:02.287Z,1.99
2019-03-19T02:18:02.261Z,1.98
2019-03-19T02:19:02.238Z,1.95
2019-03-19T02:20:02.209Z,1.95
2019-03-19T02:21:02.232Z,1.81
2019-03-19T02:22:02.163Z,1.59
2019-03-19T02:23:04.531Z,1.37
2019-03-19T02:24:02.105Z,1.18
2019-03-19T02:25:02.083Z,1.18
2019-03-19T02:26:02.064Z,1.18
2019-03-19T02:27:02.030Z,1.20
2019-03-19T02:28:02.006Z,1.16
2019-03-19T02:29:01.979Z,1.20
2019-03-19T02:30:01.980Z,1.37
2019-03-19T02:31:01.931Z,1.37
2019-03-19T02:32:01.904Z,1.37
2019-03-19T02:33:01.876Z,1.41
2019-03-19T02:34:01.855Z,1.41
2019-03-19T02:35:01.835Z,1.32
2019-03-19T02:36:01.802Z,1.29
2019-03-19T02:37:01.779Z,1.30
2019-03-19T02:38:01.757Z,1.15
2019-03-19T02:39:01.724Z,1.12
2019-03-19T02:40:01.698Z,1.06
2019-03-19T02:41:01.670Z,1.04
2019-03-19T02:42:01.647Z,1.06
2019-03-19T02:43:01.631Z,1.00
2019-03-19T02:44:01.597Z,0.97
2019-03-19T02:45:01.580Z,0.88
2019-03-19T02:46:01.543Z,1.00
2019-03-19T02:47:01.518Z,1.08
2019-03-19T02:48:01.493Z,1.05
2019-03-19T02:49:01.474Z,1.09
2019-03-19T02:50:01.442Z,1.12
2019-03-19T02:51:01.414Z,1.18
2019-03-19T02:52:01.389Z,1.23
2019-03-19T02:53:01.363Z,1.24
2019-03-19T02:54:01.338Z,1.34
2019-03-19T02:55:01.319Z,1.42
2019-03-19T02:56:01.291Z,1.48
2019-03-19T02:57:01.374Z,1.42
2019-03-19T02:58:01.233Z,1.24
2019-03-19T02:59:01.208Z,1.26
2019-03-19T03:00:01.200Z,1.18
2019-03-19T03:01:01.160Z,1.14
2019-03-19T03:02:01.129Z,1.12
2019-03-19T03:03:01.104Z,1.08
2019-03-19T03:04:01.093Z,1.02
2019-03-19T03:05:01.054Z,0.98
2019-03-19T03:06:01.025Z,1.09
2019-03-19T03:07:01.000Z,1.06
2019-03-19T03:08:00.978Z,1.23
2019-03-19T03:09:00.950Z,1.18
2019-03-19T03:10:00.925Z,1.36
2019-03-19T03:11:00.900Z,1.41
2019-03-19T03:12:00.879Z,1.52
2019-03-19T03:13:00.847Z,1.42
2019-03-19T03:14:00.923Z,1.52
2019-03-19T03:15:00.801Z,1.50
2019-03-19T03:16:00.783Z,1.54
2019-03-19T03:17:00.761Z,1.51
2019-03-19T03:18:00.723Z,1.58
2019-03-19T03:19:00.702Z,1.51
2019-03-19T03:20:00.720Z,1.55
2019-03-19T03:21:00.644Z,1.62
2019-03-19T03:22:00.639Z,1.60
2019-03-19T03:23:00.587Z,1.62
2019-03-19T03:24:00.561Z,1.66
2019-03-19T03:25:00.739Z,1.58
2019-03-19T03:26:00.510Z,1.66
2019-03-19T03:27:02.349Z,1.55
2019-03-19T03:28:00.461Z,1.52
2019-03-19T03:29:00.447Z,1.51
2019-03-19T03:30:00.556Z,1.47
2019-03-19T03:31:00.383Z,1.37
2019-03-19T03:32:00.360Z,1.37
2019-03-19T03:33:00.352Z,1.34
2019-03-19T03:34:00.307Z,1.33
2019-03-19T03:35:00.826Z,1.33
2019-03-19T03:36:00.257Z,1.30
2019-03-19T03:37:00.227Z,1.42
2019-03-19T03:38:00.208Z,1.48
2019-03-19T03:39:00.186Z,1.51
2019-03-19T03:40:00.526Z,1.45
2019-03-19T03:41:00.128Z,1.55
2019-03-19T03:42:00.098Z,1.51
2019-03-19T03:43:00.074Z,1.47
2019-03-19T03:44:00.046Z,1.47
2019-03-19T03:45:00.020Z,1.44
2019-03-19T03:45:59.994Z,1.51
2019-03-19T03:46:59.969Z,1.48
2019-03-19T03:47:59.950Z,1.47
2019-03-19T03:48:59.918Z,1.55
2019-03-19T03:49:59.892Z,1.47
2019-03-19T03:50:59.866Z,1.48
2019-03-19T03:51:59.847Z,1.36
2019-03-19T03:52:59.820Z,1.18
2019-03-19T03:53:59.791Z,1.11
2019-03-19T03:54:59.764Z,1.15
2019-03-19T03:55:59.737Z,1.09
2019-03-19T03:57:02.607Z,1.16
2019-03-19T03:57:59.684Z,1.18
2019-03-19T03:59:01.249Z,1.29
2019-03-19T03:59:59.631Z,1.24
2019-03-19T04:00:59.606Z,1.30
2019-03-19T04:01:59.589Z,1.29
2019-03-19T04:02:59.555Z,1.27
2019-03-19T04:03:59.530Z,1.41
2019-03-19T04:04:59.503Z,1.37
2019-03-19T04:05:59.477Z,1.44
2019-03-19T04:06:59.569Z,1.48
2019-03-19T04:07:59.426Z,1.41
2019-03-19T04:08:59.400Z,1.48
2019-03-19T04:09:59.375Z,1.50
2019-03-19T04:10:59.346Z,1.60
2019-03-19T04:11:59.320Z,1.54
2019-03-19T04:12:59.294Z,1.54
2019-03-19T04:13:59.269Z,1.58
2019-03-19T04:14:59.254Z,1.55
2019-03-19T04:15:59.236Z,1.55
2019-03-19T04:16:59.189Z,1.52
2019-03-19T04:17:59.164Z,1.58
2019-03-19T04:18:59.145Z,1.69
2019-03-19T04:19:59.115Z,1.63
2019-03-19T04:20:59.090Z,1.62
2019-03-19T04:21:59.062Z,1.48
2019-03-19T04:22:59.036Z,1.47
2019-03-19T04:23:59.018Z,1.45
2019-03-19T04:24:58.982Z,1.45
2019-03-19T04:25:58.971Z,1.48
2019-03-19T04:26:58.935Z,1.47
2019-03-19T04:27:58.911Z,1.52
2019-03-19T04:28:58.883Z,1.54
2019-03-19T04:29:58.854Z,1.50
2019-03-19T04:30:58.829Z,1.54
2019-03-19T04:31:58.806Z,1.60
2019-03-19T04:32:58.778Z,1.60
2019-03-19T04:33:58.750Z,1.58
2019-03-19T04:34:58.725Z,1.59
2019-03-19T04:35:58.707Z,1.68
2019-03-19T04:36:58.701Z,1.70
2019-03-19T04:37:58.648Z,1.68
2019-03-19T04:38:58.624Z,1.68
2019-03-19T04:39:58.598Z,1.65
2019-03-19T04:40:58.570Z,1.62
2019-03-19T04:41:58.545Z,1.58
2019-03-19T04:42:58.518Z,1.54
2019-03-19T04:43:58.491Z,1.63
2019-03-19T04:44:58.472Z,1.70
2019-03-19T04:45:58.439Z,1.69
2019-03-19T04:46:58.421Z,1.66
2019-03-19T04:47:58.388Z,1.60
2019-03-19T04:48:58.369Z,1.51
2019-03-19T04:49:58.337Z,1.47
2019-03-19T04:50:58.314Z,1.47
2019-03-19T04:51:58.289Z,1.52
2019-03-19T04:52:58.261Z,1.50
2019-03-19T04:53:58.231Z,1.41
2019-03-19T04:54:58.211Z,1.36
2019-03-19T04:55:58.182Z,1.41
2019-03-19T04:56:58.158Z,1.55
2019-03-19T04:57:58.131Z,1.42
2019-03-19T04:58:58.117Z,1.45
2019-03-19T04:59:59.027Z,1.48
2019-03-19T05:00:58.053Z,1.50
2019-03-19T05:01:58.028Z,1.63
2019-03-19T05:02:58.005Z,1.63
2019-03-19T05:03:57.981Z,1.68
2019-03-19T05:04:57.947Z,1.66
2019-03-19T05:05:59.652Z,1.66
2019-03-19T05:06:57.899Z,1.68
2019-03-19T05:07:57.870Z,1.70
2019-03-19T05:08:57.844Z,1.69
2019-03-19T05:09:57.823Z,1.73
2019-03-19T05:10:57.796Z,1.66
2019-03-19T05:11:57.769Z,1.72
2019-03-19T05:12:57.745Z,1.72
2019-03-19T05:13:57.714Z,1.69
2019-03-19T05:14:57.689Z,1.69
2019-03-19T05:15:57.673Z,1.77
2019-03-19T05:16:57.637Z,1.62
2019-03-19T05:17:57.612Z,1.68
2019-03-19T05:18:57.597Z,1.70
2019-03-19T05:19:57.565Z,1.69
2019-03-19T05:20:57.533Z,1.68
2019-03-19T05:21:57.509Z,1.69
2019-03-19T05:22:57.489Z,1.69
2019-03-19T05:23:57.455Z,1.65
2019-03-19T05:24:57.429Z,1.66
2019-03-19T05:25:57.411Z,1.69
2019-03-19T05:26:57.394Z,1.70
2019-03-19T05:27:57.355Z,1.66
2019-03-19T05:28:57.323Z,1.63
2019-03-19T05:29:57.301Z,1.63
2019-03-19T05:30:57.276Z,1.54
2019-03-19T05:31:57.246Z,1.60
2019-03-19T05:32:57.230Z,1.51
2019-03-19T05:33:57.196Z,1.60
2019-03-19T05:34:57.172Z,1.63
2019-03-19T05:35:57.143Z,1.59
2019-03-19T05:36:57.118Z,1.65
2019-03-19T05:37:57.092Z,1.68
2019-03-19T05:38:57.066Z,1.73
2019-03-19T05:39:57.042Z,1.72
2019-03-19T05:40:57.011Z,1.65
2019-03-19T05:41:56.986Z,1.65
2019-03-19T05:42:56.960Z,1.70
2019-03-19T05:43:56.938Z,1.77
2019-03-19T05:44:56.908Z,1.72
2019-03-19T05:45:56.883Z,1.68
2019-03-19T05:46:56.875Z,1.62
2019-03-19T05:47:56.834Z,1.65
2019-03-19T05:48:56.807Z,1.66
2019-03-19T05:49:56.778Z,1.69
2019-03-19T05:50:56.753Z,1.68
2019-03-19T05:51:56.729Z,1.65
2019-03-19T05:52:56.701Z,1.66
2019-03-19T05:53:56.677Z,1.60
2019-03-19T05:54:56.650Z,1.54
2019-03-19T05:55:56.623Z,1.58
2019-03-19T05:56:56.596Z,1.62
2019-03-19T05:57:56.582Z,1.62
2019-03-19T05:58:56.544Z,1.59
2019-03-19T05:59:56.518Z,1.66
2019-03-19T06:00:56.494Z,1.65
2019-03-19T06:01:56.467Z,1.59
2019-03-19T06:02:56.474Z,1.63
2019-03-19T06:03:56.415Z,1.65
2019-03-19T06:04:56.388Z,1.63
2019-03-19T06:05:56.362Z,1.63
2019-03-19T06:06:56.335Z,1.66
2019-03-19T06:07:56.310Z,1.65
2019-03-19T06:08:56.294Z,1.65
2019-03-19T06:09:56.257Z,1.69
2019-03-19T06:10:56.233Z,1.76
2019-03-19T06:11:56.206Z,1.77
2019-03-19T06:12:56.181Z,1.81
2019-03-19T06:13:56.153Z,1.77
2019-03-19T06:14:56.127Z,1.86
2019-03-19T06:15:56.102Z,1.81
2019-03-19T06:16:56.076Z,1.80
2019-03-19T06:17:56.050Z,1.83
2019-03-19T06:18:56.023Z,1.84
2019-03-19T06:19:56.000Z,1.86
2019-03-19T06:20:55.972Z,1.84
2019-03-19T06:21:56.895Z,1.83
2019-03-19T06:22:55.921Z,1.81
2019-03-19T06:23:55.899Z,1.84
2019-03-19T06:24:55.879Z,1.95
2019-03-19T06:25:55.845Z,2.00
2019-03-19T06:26:55.816Z,1.86
2019-03-19T06:28:00.329Z,1.98
2019-03-19T06:28:55.763Z,1.98
2019-03-19T06:29:55.738Z,1.88
2019-03-19T06:30:55.717Z,1.95
2019-03-19T06:31:55.687Z,1.83
2019-03-19T06:32:55.658Z,2.00
2019-03-19T06:33:55.639Z,1.95
2019-03-19T06:34:55.616Z,1.88
2019-03-19T06:35:55.582Z,1.88
2019-03-19T06:36:55.561Z,2.00
2019-03-19T06:37:55.528Z,1.93
2019-03-19T06:38:55.506Z,1.91
2019-03-19T06:39:55.477Z,1.88
2019-03-19T06:40:55.458Z,1.98
2019-03-19T06:41:55.427Z,1.95
2019-03-19T06:42:55.402Z,2.00
2019-03-19T06:43:55.374Z,2.05
2019-03-19T06:44:55.347Z,2.00
2019-03-19T06:45:55.328Z,2.05
2019-03-19T06:46:55.308Z,2.00
2019-03-19T06:47:55.270Z,2.16
2019-03-19T06:48:55.242Z,2.14
2019-03-19T06:49:55.218Z,2.14
2019-03-19T06:50:55.198Z,2.06
2019-03-19T06:51:55.166Z,2.07
2019-03-19T06:52:55.139Z,2.05
2019-03-19T06:53:55.114Z,2.09
2019-03-19T06:54:55.096Z,2.17
2019-03-19T06:55:55.068Z,2.14
2019-03-19T06:56:55.036Z,2.21
2019-03-19T06:57:55.013Z,2.25
2019-03-19T06:58:54.995Z,2.24
2019-03-19T06:59:54.964Z,2.36
2019-03-19T07:00:54.930Z,2.35
2019-03-19T07:01:54.906Z,2.34
2019-03-19T07:02:54.881Z,2.34
2019-03-19T07:03:54.862Z,2.38
2019-03-19T07:04:54.830Z,2.34
2019-03-19T07:05:54.805Z,2.42
2019-03-19T07:06:54.780Z,2.35
2019-03-19T07:07:54.754Z,2.43
2019-03-19T07:08:54.734Z,2.49
2019-03-19T07:09:54.698Z,2.49
2019-03-19T07:10:54.678Z,2.46
2019-03-19T07:11:54.650Z,2.42
2019-03-19T07:12:54.631Z,2.52
2019-03-19T07:13:54.602Z,2.45
2019-03-19T07:14:54.575Z,2.56
2019-03-19T07:15:54.541Z,2.52
2019-03-19T07:16:54.515Z,2.45
2019-03-19T07:17:54.500Z,2.60
2019-03-19T07:18:54.465Z,2.63
2019-03-19T07:19:54.439Z,2.66
2019-03-19T07:20:54.414Z,2.74
2019-03-19T07:21:54.385Z,2.74
2019-03-19T07:22:54.359Z,2.82
2019-03-19T07:23:54.336Z,2.82
2019-03-19T07:24:54.308Z,2.92
2019-03-19T07:25:54.281Z,2.84
2019-03-19T07:26:54.289Z,2.97
2019-03-19T07:27:54.234Z,2.93
2019-03-19T07:28:54.205Z,3.06
2019-03-19T07:29:54.185Z,3.06
2019-03-19T07:30:54.155Z,3.13
2019-03-19T07:31:54.133Z,3.15
2019-03-19T07:32:54.110Z,3.23
2019-03-19T07:33:54.076Z,3.20
2019-03-19T07:34:54.064Z,3.33
2019-03-19T07:35:54.033Z,3.39
2019-03-19T07:36:54.003Z,3.47
2019-03-19T07:37:53.977Z,3.35
2019-03-19T07:38:53.948Z,3.50
2019-03-19T07:39:53.926Z,3.50
2019-03-19T07:40:53.896Z,3.47
2019-03-19T07:41:53.869Z,3.48
2019-03-19T07:42:53.857Z,3.60
2019-03-19T07:43:53.822Z,3.58
2019-03-19T07:44:53.794Z,3.68
2019-03-19T07:45:53.768Z,3.73
2019-03-19T07:46:53.744Z,3.73
2019-03-19T07:47:53.721Z,3.70
2019-03-19T07:48:53.693Z,3.73
2019-03-19T07:49:53.671Z,3.80
2019-03-19T07:50:53.641Z,3.78
2019-03-19T07:51:53.711Z,3.76
2019-03-19T07:52:53.588Z,3.79
2019-03-19T07:53:53.568Z,3.79
2019-03-19T07:54:53.538Z,3.88
2019-03-19T07:55:53.695Z,3.97
2019-03-19T07:56:53.487Z,3.96
2019-03-19T07:57:53.463Z,4.02
2019-03-19T07:58:53.435Z,4.08
2019-03-19T07:59:53.412Z,4.14
2019-03-19T08:00:53.387Z,4.08
2019-03-19T08:01:53.361Z,4.23
2019-03-19T08:02:53.350Z,4.30
2019-03-19T08:03:53.311Z,4.27
2019-03-19T08:04:53.286Z,4.36
2019-03-19T08:05:53.259Z,4.29
2019-03-19T08:06:53.234Z,4.32
2019-03-19T08:07:53.210Z,4.48
2019-03-19T08:08:53.184Z,4.42
2019-03-19T08:09:53.156Z,4.44
2019-03-19T08:10:53.144Z,4.54
2019-03-19T08:11:53.111Z,4.55
2019-03-19T08:12:53.088Z,4.59
2019-03-19T08:13:53.059Z,4.63
2019-03-19T08:14:53.038Z,4.80
2019-03-19T08:15:53.008Z,4.72
2019-03-19T08:16:53.356Z,4.72
2019-03-19T08:17:52.958Z,4.82
2019-03-19T08:18:52.933Z,4.85
2019-03-19T08:19:52.913Z,4.82
2019-03-19T08:20:52.883Z,4.84
2019-03-19T08:21:52.859Z,4.91
2019-03-19T08:22:52.853Z,5.02
2019-03-19T08:23:52.808Z,4.92
2019-03-19T08:24:52.794Z,4.99
2019-03-19T08:25:52.761Z,5.07
2019-03-19T08:26:52.733Z,5.10
2019-03-19T08:27:52.710Z,5.13
2019-03-19T08:28:55.607Z,5.27
2019-03-19T08:29:52.720Z,5.25
2019-03-19T08:30:52.645Z,5.36
2019-03-19T08:31:52.664Z,5.39
2019-03-19T08:32:52.583Z,5.40
2019-03-19T08:33:52.558Z,5.46
2019-03-19T08:34:52.540Z,5.56
2019-03-19T08:35:52.513Z,5.56
2019-03-19T08:36:52.489Z,5.57
2019-03-19T08:37:52.459Z,5.63
2019-03-19T08:38:52.443Z,5.61
2019-03-19T08:39:52.411Z,5.64
2019-03-19T08:40:52.383Z,5.76
2019-03-19T08:41:52.367Z,5.72
2019-03-19T08:42:52.335Z,5.68
2019-03-19T08:43:52.710Z,5.78
2019-03-19T08:44:52.286Z,5.75
2019-03-19T08:45:52.260Z,5.79
2019-03-19T08:46:52.242Z,5.89
2019-03-19T08:47:52.218Z,5.82
2019-03-19T08:48:52.194Z,5.85
2019-03-19T08:49:52.175Z,5.85
2019-03-19T08:50:52.141Z,5.75
2019-03-19T08:51:52.111Z,5.93
2019-03-19T08:52:52.084Z,5.93
2019-03-19T08:53:52.064Z,5.93
2019-03-19T08:54:52.039Z,6.03
2019-03-19T08:55:52.014Z,6.00
2019-03-19T08:56:51.989Z,6.09
2019-03-19T08:57:51.963Z,6.06
2019-03-19T08:58:51.941Z,6.09
2019-03-19T08:59:51.925Z,6.15
2019-03-19T09:00:51.900Z,6.21
2019-03-19T09:01:51.865Z,6.17
2019-03-19T09:02:51.845Z,6.33
2019-03-19T09:03:51.817Z,6.14
2019-03-19T09:04:51.794Z,6.21
2019-03-19T09:05:51.769Z,6.21
2019-03-19T09:06:51.743Z,6.18
2019-03-19T09:07:51.727Z,6.28
2019-03-19T09:08:51.695Z,6.25
2019-03-19T09:09:51.682Z,6.30
2019-03-19T09:10:51.648Z,6.43
2019-03-19T09:11:51.625Z,6.41
2019-03-19T09:12:51.604Z,6.44
2019-03-19T09:13:51.575Z,6.55
2019-03-19T09:14:51.564Z,6.54
2019-03-19T09:15:51.528Z,6.59
2019-03-19T09:16:51.500Z,6.55
2019-03-19T09:17:51.484Z,6.62
2019-03-19T09:18:51.455Z,6.62
2019-03-19T09:19:51.435Z,6.67
2019-03-19T09:20:51.402Z,6.80
2019-03-19T09:21:51.420Z,6.84
2019-03-19T09:22:51.357Z,6.84
2019-03-19T09:23:51.330Z,6.88
2019-03-19T09:24:51.313Z,6.95
2019-03-19T09:25:51.289Z,6.95
2019-03-19T09:26:51.258Z,7.05
2019-03-19T09:27:51.237Z,7.05
2019-03-19T09:28:51.216Z,7.17
2019-03-19T09:29:51.200Z,7.13
2019-03-19T09:30:51.162Z,7.16
2019-03-19T09:31:51.139Z,7.23
2019-03-19T09:32:51.115Z,7.24
2019-03-19T09:33:51.090Z,7.35
2019-03-19T09:34:51.069Z,7.42
2019-03-19T09:35:51.101Z,7.42
2019-03-19T09:36:57.251Z,7.52
2019-03-19T09:37:58.223Z,7.45
2019-03-19T09:38:50.971Z,7.53
2019-03-19T09:39:50.949Z,7.72
2019-03-19T09:40:50.922Z,7.71
2019-03-19T09:41:50.898Z,7.85
2019-03-19T09:42:50.885Z,7.98
2019-03-19T09:43:50.852Z,8.04
2019-03-19T09:44:58.343Z,8.07
2019-03-19T09:45:50.803Z,8.11
2019-03-19T09:46:50.783Z,8.23
2019-03-19T09:47:50.757Z,8.12
2019-03-19T09:48:50.735Z,8.16
2019-03-19T09:49:50.719Z,8.04
2019-03-19T09:50:50.694Z,8.19
2019-03-19T09:51:50.664Z,8.28
2019-03-19T09:52:50.644Z,8.30
2019-03-19T09:53:50.619Z,8.41
2019-03-19T09:54:50.604Z,8.34
2019-03-19T09:55:50.571Z,8.36
2019-03-19T09:56:50.556Z,8.38
2019-03-19T09:57:50.527Z,8.25
2019-03-19T09:58:50.522Z,8.40
2019-03-19T09:59:50.481Z,8.61
2019-03-19T10:00:50.456Z,8.59
2019-03-19T10:01:50.428Z,8.68
2019-03-19T10:02:50.406Z,8.61
2019-03-19T10:03:51.498Z,8.56
2019-03-19T10:04:50.361Z,8.40
2019-03-19T10:05:50.338Z,8.20
2019-03-19T10:06:50.313Z,8.07
2019-03-19T10:07:50.310Z,8.00
2019-03-19T10:08:50.267Z,8.04
2019-03-19T10:09:50.250Z,8.22
2019-03-19T10:10:52.414Z,8.23
2019-03-19T10:11:50.196Z,8.25
2019-03-19T10:12:50.173Z,8.34
2019-03-19T10:13:50.262Z,8.33
2019-03-19T10:14:50.125Z,8.16
2019-03-19T10:15:50.113Z,8.10
2019-03-19T10:16:50.085Z,8.07
2019-03-19T10:17:50.056Z,8.07
2019-03-19T10:18:50.033Z,8.00
2019-03-19T10:19:50.011Z,7.93
2019-03-19T10:20:49.995Z,7.90
2019-03-19T10:21:49.964Z,7.89
2019-03-19T10:22:49.954Z,7.93
2019-03-19T10:23:49.921Z,7.83
2019-03-19T10:24:49.895Z,7.79
2019-03-19T10:25:49.872Z,7.74
2019-03-19T10:26:49.849Z,7.60
2019-03-19T10:27:49.830Z,7.49
2019-03-19T10:28:49.797Z,7.43
2019-03-19T10:29:49.782Z,7.43
2019-03-19T10:30:49.753Z,7.40
2019-03-19T10:31:49.729Z,7.40
2019-03-19T10:32:49.704Z,7.37
2019-03-19T10:33:49.683Z,7.37
2019-03-19T10:34:49.669Z,7.39
2019-03-19T10:35:49.631Z,7.42
2019-03-19T10:36:49.609Z,7.35
2019-03-19T10:37:49.592Z,7.39
2019-03-19T10:38:49.575Z,7.37
2019-03-19T10:39:49.540Z,7.35
2019-03-19T10:40:49.513Z,7.39
2019-03-19T10:41:49.494Z,7.43
2019-03-19T10:42:49.470Z,7.43
2019-03-19T10:43:49.442Z,7.42
2019-03-19T10:44:49.420Z,7.39
2019-03-19T10:45:49.399Z,7.37
2019-03-19T10:46:49.378Z,7.43
2019-03-19T10:47:49.348Z,7.45
2019-03-19T10:48:49.324Z,7.43
2019-03-19T10:49:49.301Z,7.43
2019-03-19T10:50:49.275Z,7.49
2019-03-19T10:51:49.249Z,7.46
2019-03-19T10:52:49.226Z,7.69
2019-03-19T10:53:49.203Z,7.64
2019-03-19T10:54:49.185Z,7.74
2019-03-19T10:55:49.157Z,7.64
2019-03-19T10:56:49.137Z,7.63
2019-03-19T10:57:49.106Z,7.67
2019-03-19T10:58:49.082Z,7.64
2019-03-19T10:59:49.547Z,7.60
2019-03-19T11:00:49.052Z,7.64
2019-03-19T11:01:51.355Z,7.64
2019-03-19T11:02:48.991Z,7.61
2019-03-19T11:03:48.969Z,7.64
2019-03-19T11:04:48.946Z,7.68
2019-03-19T11:05:48.920Z,7.67
2019-03-19T11:06:48.894Z,7.55
2019-03-19T11:07:48.870Z,7.67
2019-03-19T11:08:48.842Z,7.57
2019-03-19T11:09:48.821Z,7.68
2019-03-19T11:10:48.804Z,7.68
2019-03-19T11:11:48.774Z,7.63
2019-03-19T11:12:48.755Z,7.67
2019-03-19T11:13:48.728Z,7.79
2019-03-19T11:14:48.703Z,7.95
2019-03-19T11:15:48.685Z,8.02
2019-03-19T11:16:48.659Z,8.12
2019-03-19T11:17:48.634Z,8.10
2019-03-19T11:18:48.607Z,8.07
2019-03-19T11:19:48.586Z,8.18
2019-03-19T11:20:48.568Z,8.26
2019-03-19T11:21:48.542Z,8.38
2019-03-19T11:22:48.514Z,8.56
2019-03-19T11:23:48.490Z,8.56
2019-03-19T11:24:48.470Z,8.61
2019-03-19T11:25:54.464Z,8.56
2019-03-19T11:26:48.420Z,8.33
2019-03-19T11:27:48.408Z,8.38
2019-03-19T11:28:48.373Z,8.25
2019-03-19T11:29:48.355Z,8.22
2019-03-19T11:30:48.328Z,8.20
2019-03-19T11:31:48.311Z,8.18
2019-03-19T11:32:48.278Z,8.23
2019-03-19T11:33:48.260Z,8.22
2019-03-19T11:34:48.242Z,8.18
2019-03-19T11:35:48.246Z,8.22
2019-03-19T11:36:57.470Z,8.20
2019-03-19T11:37:48.179Z,8.33
2019-03-19T11:38:48.142Z,8.37
2019-03-19T11:39:48.121Z,8.50
2019-03-19T11:40:48.102Z,8.65
2019-03-19T11:41:48.072Z,8.61
2019-03-19T11:42:48.047Z,8.63
2019-03-19T11:43:48.029Z,8.68
2019-03-19T11:44:48.011Z,8.81
2019-03-19T11:45:47.981Z,8.68
2019-03-19T11:46:47.954Z,8.79
2019-03-19T11:47:47.933Z,8.73
2019-03-19T11:48:47.912Z,8.66
2019-03-19T11:49:47.889Z,8.74
2019-03-19T11:50:47.862Z,8.58
2019-03-19T11:51:47.838Z,8.41
2019-03-19T11:52:47.815Z,8.34
2019-03-19T11:53:47.791Z,8.28
2019-03-19T11:54:47.772Z,8.20
2019-03-19T11:55:47.749Z,8.22
2019-03-19T11:56:47.725Z,8.37
2019-03-19T11:57:47.703Z,8.33
2019-03-19T11:58:47.677Z,8.26
2019-03-19T11:59:47.655Z,8.34
2019-03-19T12:00:47.630Z,8.40
2019-03-19T12:01:47.608Z,8.47
2019-03-19T12:02:47.585Z,8.62
2019-03-19T12:03:47.561Z,8.62
2019-03-19T12:04:47.540Z,8.71
2019-03-19T12:05:47.518Z,8.79
2019-03-19T12:06:47.492Z,8.81
2019-03-19T12:07:47.475Z,8.76
2019-03-19T12:08:47.449Z,8.89
2019-03-19T12:09:47.423Z,8.86
2019-03-19T12:10:47.402Z,8.79
2019-03-19T12:11:47.377Z,8.71
2019-03-19T12:12:47.353Z,8.76
2019-03-19T12:13:47.332Z,8.66
2019-03-19T12:14:47.546Z,8.56
2019-03-19T12:15:47.286Z,8.56
2019-03-19T12:16:47.269Z,8.56
2019-03-19T12:17:48.851Z,8.45
2019-03-19T12:18:47.219Z,8.40
2019-03-19T12:19:47.198Z,8.44
2019-03-19T12:20:47.169Z,8.34
2019-03-19T12:21:47.149Z,8.25
2019-03-19T12:22:47.122Z,8.26
2019-03-19T12:23:47.104Z,8.18
2019-03-19T12:24:47.077Z,8.23
2019-03-19T12:25:47.060Z,8.22
2019-03-19T12:26:47.030Z,8.20
2019-03-19T12:27:47.008Z,8.18
2019-03-19T12:28:47.096Z,8.23
2019-03-19T12:29:46.969Z,8.20
2019-03-19T12:30:46.938Z,8.23
2019-03-19T12:31:46.914Z,8.34
2019-03-19T12:32:46.898Z,8.41
2019-03-19T12:33:46.880Z,8.47
2019-03-19T12:34:46.850Z,8.56
2019-03-19T12:35:46.832Z,8.55
2019-03-19T12:36:46.801Z,8.53
2019-03-19T12:37:46.774Z,8.59
2019-03-19T12:38:46.752Z,8.58
2019-03-19T12:39:46.741Z,8.63
2019-03-19T12:40:46.712Z,8.58
2019-03-19T12:41:48.553Z,8.59
2019-03-19T12:42:46.659Z,8.50
2019-03-19T12:43:46.636Z,8.37
2019-03-19T12:44:46.621Z,8.41
2019-03-19T12:45:46.593Z,8.44
2019-03-19T12:46:46.565Z,8.40
2019-03-19T12:47:46.543Z,8.40
2019-03-19T12:48:46.533Z,8.37
2019-03-19T12:49:46.494Z,8.38
2019-03-19T12:50:46.474Z,8.38
2019-03-19T12:51:46.533Z,8.38
2019-03-19T12:52:46.425Z,8.53
2019-03-19T12:53:46.401Z,8.61
2019-03-19T12:54:46.387Z,8.56
2019-03-19T12:55:46.356Z,8.59
2019-03-19T12:56:46.338Z,8.68
2019-03-19T12:57:46.327Z,8.84
2019-03-19T12:58:46.293Z,8.83
2019-03-19T12:59:46.270Z,9.01
2019-03-19T13:00:46.239Z,9.10
2019-03-19T13:01:46.219Z,9.21
2019-03-19T13:02:46.197Z,9.31
2019-03-19T13:03:46.170Z,9.40
2019-03-19T13:04:46.147Z,9.46
2019-03-19T13:05:46.127Z,9.32
2019-03-19T13:06:46.103Z,9.29
2019-03-19T13:07:46.082Z,9.35
2019-03-19T13:08:46.143Z,9.33
2019-03-19T13:09:46.051Z,9.29
2019-03-19T13:10:46.009Z,9.31
2019-03-19T13:11:46.003Z,9.43
2019-03-19T13:12:45.965Z,9.42
2019-03-19T13:13:45.942Z,9.54
2019-03-19T13:14:45.919Z,9.66
2019-03-19T13:15:45.902Z,9.78
2019-03-19T13:16:45.879Z,9.84
2019-03-19T13:17:45.863Z,9.83